Portada
METAR-TAF:

METAR-TAF

Aeroports :

Aeroport Internacional de Mitiga

Trípoli, Líbia

latitud: 32-54N, longitud: 13-17E, altitud: 11 m

METAR: manca

Hora: 09:04 (07:04 UTC)

Pronòstic

L'informe es va fer fa 20 hores i 4 minuts, a les 11:00 UTC
Pronòstic vàlid del 19 a les 12 UTC al 20 a les 12 UTC
Vent 10 kt del Nord/Nord-Oest
Visibilitat 10 km o més
Escasses núvols a una alçada de 2500 ft
Núvols disperses a una alçada de 7000 ft
Evolucionant progressivament
l' 19 a les 22 UTC al 19 a les 24 UTC
Vent 2 kt amb direcció variable
Evolucionant progressivament
l' 20 a les 02 UTC al 20 a les 04 UTC
Vent 10 kt del Sud/Sud-Oest

TAF: HLLM 191100Z 1912/2012 33010KT 9999 FEW025 SCT070 BECMG 1922/1924 VRB02KT BECMG 2002/2004 20010KT

Observacions i pronòstics meteorològics de més de 4000 aeroports (METAR i TAF).

Les estacions disponibles són els punts grocs i vermells al mapa.

Posi el ratolí al punt desitjat per veure el nom de l'estació.

Feu clic per veure les observacions i els pronòstics meteorològics.

Per canviar el mapa: feu clic els botons verds amb una creu de color negre per apropar; al botó verd amb un guió per allunyar la imatge; o en les fletxes verdes per a mapes adjacents.


METAR-TAF: